KCDS

Childress Municipal Airport

Childress, Texas, USA
METAR KCDS 191853Z AUTO 20005KT 10SM CLR 18/13 A3018 RMK AO2 SLP209 T01830128
Observed Flight Rules
Oct-19 @ 18:53 UTC (58 minutes ago) Visual Flight Rules
Wind Visibility Clouds
200° at 5 knots 10 miles
  • Clear skies
Temperatures Readings
Current 18°C / 64°F
Dewpoint 13°C / 55°F
Humidity 73%
Altimeter 30.18" Hg
Pressure 1020.9 hPa
Elevation 594
METAR KCDS 191853Z AUTO 20005KT 10SM CLR 18/13 A3018 RMK AO2 SLP209 T01830128
Observed Flight Rules
Oct-19 @ 18:53 UTC
(58 minutes ago)
VFR
Wind Visibility
200° at 5 knots 10 miles
Clouds
  • Clear skies
Temperature Dewpoint
18°C / 64°F 13°C / 55°F
Humidity Altimeter Pressure
73% 30.18" Hg 1020.9 hPa